sensor_id;sensor_type;location;lat;lon;timestamp;pressure;altitude;pressure_sealevel;temperature;humidity
40788;BME280;26497;52.494;7.546;2023-06-22T00:00:45;101327.94;;;23.42;72.60
40788;BME280;26497;52.494;7.546;2023-06-22T00:03:13;101332.66;;;23.37;72.82
40788;BME280;26497;52.494;7.546;2023-06-22T00:05:40;101323.50;;;23.41;72.39
40788;BME280;26497;52.494;7.546;2023-06-22T00:08:09;101324.72;;;23.34;72.49
40788;BME280;26497;52.494;7.546;2023-06-22T00:10:36;101325.66;;;23.33;72.68
40788;BME280;26497;52.494;7.546;2023-06-22T00:13:03;101325.91;;;23.26;73.17
40788;BME280;26497;52.494;7.546;2023-06-22T00:15:30;101330.56;;;23.23;72.99
40788;BME280;26497;52.494;7.546;2023-06-22T00:17:58;101316.31;;;23.19;73.22
40788;BME280;26497;52.494;7.546;2023-06-22T00:20:25;101323.41;;;23.22;72.86
40788;BME280;26497;52.494;7.546;2023-06-22T00:26:06;101316.91;;;23.27;71.97
40788;BME280;26497;52.494;7.546;2023-06-22T00:28:43;101309.06;;;23.21;71.84
40788;BME280;26497;52.494;7.546;2023-06-22T00:31:51;101318.28;;;23.16;72.00
40788;BME280;26497;52.494;7.546;2023-06-22T00:34:45;101307.66;;;23.12;71.90
40788;BME280;26497;52.494;7.546;2023-06-22T00:45:30;101282.41;;;22.74;72.38
40788;BME280;26497;52.494;7.546;2023-06-22T00:48:06;101283.66;;;22.65;72.36
40788;BME280;26497;52.494;7.546;2023-06-22T00:50:35;101285.28;;;22.69;72.08
40788;BME280;26497;52.494;7.546;2023-06-22T00:53:05;101278.09;;;22.70;72.18
40788;BME280;26497;52.494;7.546;2023-06-22T00:55:35;101275.91;;;22.57;72.29
40788;BME280;26497;52.494;7.546;2023-06-22T00:58:05;101274.22;;;22.54;72.20
40788;BME280;26497;52.494;7.546;2023-06-22T01:00:38;101276.41;;;22.45;72.70
40788;BME280;26497;52.494;7.546;2023-06-22T01:03:08;101270.19;;;22.43;72.61
40788;BME280;26497;52.494;7.546;2023-06-22T01:05:37;101271.00;;;22.46;72.22
40788;BME280;26497;52.494;7.546;2023-06-22T01:08:16;101264.00;;;22.41;72.66
40788;BME280;26497;52.494;7.546;2023-06-22T01:10:50;101257.13;;;22.33;72.67
40788;BME280;26497;52.494;7.546;2023-06-22T01:13:26;101263.53;;;22.31;73.13
40788;BME280;26497;52.494;7.546;2023-06-22T01:16:03;101269.59;;;22.36;72.67
40788;BME280;26497;52.494;7.546;2023-06-22T01:18:32;101267.50;;;22.43;72.38
40788;BME280;26497;52.494;7.546;2023-06-22T01:21:03;101268.41;;;22.43;72.27
40788;BME280;26497;52.494;7.546;2023-06-22T01:23:51;101268.09;;;22.51;72.12
40788;BME280;26497;52.494;7.546;2023-06-22T01:26:28;101268.06;;;22.52;72.04
40788;BME280;26497;52.494;7.546;2023-06-22T01:29:04;101268.84;;;22.54;71.61
40788;BME280;26497;52.494;7.546;2023-06-22T01:31:36;101266.66;;;22.42;72.30
40788;BME280;26497;52.494;7.546;2023-06-22T01:34:06;101273.59;;;22.48;71.91
40788;BME280;26497;52.494;7.546;2023-06-22T01:36:34;101268.09;;;22.51;71.73
40788;BME280;26497;52.494;7.546;2023-06-22T01:39:02;101264.59;;;22.49;71.58
40788;BME280;26497;52.494;7.546;2023-06-22T01:41:37;101260.28;;;22.45;71.75
40788;BME280;26497;52.494;7.546;2023-06-22T01:44:07;101261.28;;;22.42;71.54
40788;BME280;26497;52.494;7.546;2023-06-22T01:46:35;101256.31;;;22.31;71.84
40788;BME280;26497;52.494;7.546;2023-06-22T01:49:04;101260.75;;;22.32;71.87
40788;BME280;26497;52.494;7.546;2023-06-22T01:51:32;101265.63;;;22.22;72.16
40788;BME280;26497;52.494;7.546;2023-06-22T01:54:01;101259.63;;;22.16;71.89
40788;BME280;26497;52.494;7.546;2023-06-22T01:56:29;101257.81;;;22.16;72.01
40788;BME280;26497;52.494;7.546;2023-06-22T01:59:03;101254.88;;;22.22;71.70
40788;BME280;26497;52.494;7.546;2023-06-22T02:01:39;101253.50;;;22.12;72.09
40788;BME280;26497;52.494;7.546;2023-06-22T02:04:13;101252.63;;;22.12;72.16
40788;BME280;26497;52.494;7.546;2023-06-22T02:06:45;101262.38;;;22.14;71.56
40788;BME280;26497;52.494;7.546;2023-06-22T02:09:17;101261.81;;;22.06;71.72
40788;BME280;26497;52.494;7.546;2023-06-22T02:11:46;101271.78;;;22.02;72.01
40788;BME280;26497;52.494;7.546;2023-06-22T02:17:20;101262.50;;;22.11;71.80
40788;BME280;26497;52.494;7.546;2023-06-22T02:19:47;101266.41;;;22.02;72.60
40788;BME280;26497;52.494;7.546;2023-06-22T02:22:15;101261.72;;;22.07;72.24
40788;BME280;26497;52.494;7.546;2023-06-22T02:24:42;101269.66;;;22.10;71.96
40788;BME280;26497;52.494;7.546;2023-06-22T02:27:09;101264.28;;;22.10;71.68
40788;BME280;26497;52.494;7.546;2023-06-22T02:29:37;101262.91;;;22.00;72.38
40788;BME280;26497;52.494;7.546;2023-06-22T02:32:05;101258.91;;;22.10;71.94
40788;BME280;26497;52.494;7.546;2023-06-22T02:34:33;101251.50;;;22.17;71.77
40788;BME280;26497;52.494;7.546;2023-06-22T02:37:03;101267.88;;;22.11;72.19
40788;BME280;26497;52.494;7.546;2023-06-22T02:39:30;101262.72;;;22.05;72.56
40788;BME280;26497;52.494;7.546;2023-06-22T02:41:58;101266.16;;;22.08;72.42
40788;BME280;26497;52.494;7.546;2023-06-22T02:44:25;101270.47;;;22.13;72.46
40788;BME280;26497;52.494;7.546;2023-06-22T02:46:52;101259.69;;;22.14;72.37
40788;BME280;26497;52.494;7.546;2023-06-22T02:49:20;101255.19;;;22.15;72.03
40788;BME280;26497;52.494;7.546;2023-06-22T02:51:49;101263.06;;;22.19;71.97
40788;BME280;26497;52.494;7.546;2023-06-22T02:54:16;101255.06;;;22.18;71.80
40788;BME280;26497;52.494;7.546;2023-06-22T02:56:43;101263.13;;;22.18;71.98
40788;BME280;26497;52.494;7.546;2023-06-22T02:59:10;101267.44;;;22.22;71.96
40788;BME280;26497;52.494;7.546;2023-06-22T03:01:38;101256.69;;;22.22;71.69
40788;BME280;26497;52.494;7.546;2023-06-22T03:04:06;101264.28;;;22.10;72.29
40788;BME280;26497;52.494;7.546;2023-06-22T03:06:34;101258.06;;;22.10;72.12
40788;BME280;26497;52.494;7.546;2023-06-22T03:09:04;101263.44;;;22.10;71.90
40788;BME280;26497;52.494;7.546;2023-06-22T03:11:32;101259.25;;;22.03;72.07
40788;BME280;26497;52.494;7.546;2023-06-22T03:14:00;101268.28;;;22.00;72.22
40788;BME280;26497;52.494;7.546;2023-06-22T03:16:28;101259.97;;;22.06;72.16
40788;BME280;26497;52.494;7.546;2023-06-22T03:18:56;101269.63;;;22.12;71.56
40788;BME280;26497;52.494;7.546;2023-06-22T03:21:23;101268.69;;;22.13;71.63
40788;BME280;26497;52.494;7.546;2023-06-22T03:23:50;101267.91;;;22.09;72.02
40788;BME280;26497;52.494;7.546;2023-06-22T03:26:19;101267.91;;;22.09;71.94
40788;BME280;26497;52.494;7.546;2023-06-22T03:32:07;101264.28;;;22.10;71.98
40788;BME280;26497;52.494;7.546;2023-06-22T03:34:54;101253.88;;;22.25;71.53
40788;BME280;26497;52.494;7.546;2023-06-22T03:37:52;101257.38;;;22.27;71.76
40788;BME280;26497;52.494;7.546;2023-06-22T03:41:14;101262.50;;;22.33;71.37
40788;BME280;26497;52.494;7.546;2023-06-22T03:44:51;101262.50;;;22.33;71.39
40788;BME280;26497;52.494;7.546;2023-06-22T03:51:46;101256.66;;;22.46;70.72
40788;BME280;26497;52.494;7.546;2023-06-22T03:55:07;101270.09;;;22.46;70.63
40788;BME280;26497;52.494;7.546;2023-06-22T03:57:47;101265.41;;;22.51;69.90
40788;BME280;26497;52.494;7.546;2023-06-22T04:00:35;101257.78;;;22.62;69.46
40788;BME280;26497;52.494;7.546;2023-06-22T04:03:03;101260.47;;;22.62;69.33
40788;BME280;26497;52.494;7.546;2023-06-22T04:05:40;101262.22;;;22.63;69.27
40788;BME280;26497;52.494;7.546;2023-06-22T04:08:15;101256.47;;;22.73;69.01
40788;BME280;26497;52.494;7.546;2023-06-22T04:10:43;101261.63;;;22.77;68.51
40788;BME280;26497;52.494;7.546;2023-06-22T04:13:11;101258.69;;;22.83;68.36
40788;BME280;26497;52.494;7.546;2023-06-22T04:15:42;101254.75;;;22.92;68.06
40788;BME280;26497;52.494;7.546;2023-06-22T04:18:10;101257.84;;;23.04;67.19
40788;BME280;26497;52.494;7.546;2023-06-22T04:20:37;101254.22;;;23.05;67.21
40788;BME280;26497;52.494;7.546;2023-06-22T04:23:05;101258.97;;;23.19;66.86
40788;BME280;26497;52.494;7.546;2023-06-22T04:25:34;101259.31;;;23.32;66.24
40788;BME280;26497;52.494;7.546;2023-06-22T04:28:21;101249.44;;;23.32;65.81
40788;BME280;26497;52.494;7.546;2023-06-22T04:30:50;101248.00;;;23.44;65.80
40788;BME280;26497;52.494;7.546;2023-06-22T04:33:23;101249.84;;;23.63;65.02
40788;BME280;26497;52.494;7.546;2023-06-22T04:35:53;101237.16;;;23.85;64.35
40788;BME280;26497;52.494;7.546;2023-06-22T04:38:20;101245.16;;;24.25;63.11
40788;BME280;26497;52.494;7.546;2023-06-22T04:40:50;101254.03;;;24.64;62.06
40788;BME280;26497;52.494;7.546;2023-06-22T04:43:17;101245.13;;;25.16;58.56
40788;BME280;26497;52.494;7.546;2023-06-22T04:45:45;101248.03;;;25.63;57.55
40788;BME280;26497;52.494;7.546;2023-06-22T04:48:18;101246.69;;;26.04;55.81
40788;BME280;26497;52.494;7.546;2023-06-22T04:50:47;101247.75;;;26.17;54.46
40788;BME280;26497;52.494;7.546;2023-06-22T04:53:18;101236.06;;;26.33;54.21
40788;BME280;26497;52.494;7.546;2023-06-22T04:55:45;101234.41;;;26.46;52.71
40788;BME280;26497;52.494;7.546;2023-06-22T04:58:15;101232.28;;;26.52;53.12
40788;BME280;26497;52.494;7.546;2023-06-22T05:00:49;101229.00;;;26.93;51.03
40788;BME280;26497;52.494;7.546;2023-06-22T05:03:19;101228.19;;;27.50;50.64
40788;BME280;26497;52.494;7.546;2023-06-22T05:05:46;101225.78;;;28.17;47.57
40788;BME280;26497;52.494;7.546;2023-06-22T05:08:17;101223.88;;;28.59;46.36
40788;BME280;26497;52.494;7.546;2023-06-22T05:10:46;101225.69;;;28.59;46.05
40788;BME280;26497;52.494;7.546;2023-06-22T05:13:13;101219.97;;;28.63;45.97
40788;BME280;26497;52.494;7.546;2023-06-22T05:15:41;101234.13;;;28.41;46.54
40788;BME280;26497;52.494;7.546;2023-06-22T05:18:08;101226.50;;;27.91;47.00
40788;BME280;26497;52.494;7.546;2023-06-22T05:20:39;101233.66;;;27.34;48.30
40788;BME280;26497;52.494;7.546;2023-06-22T05:23:06;101228.81;;;26.80;49.71
40788;BME280;26497;52.494;7.546;2023-06-22T05:25:36;101234.16;;;26.35;51.14
40788;BME280;26497;52.494;7.546;2023-06-22T05:28:03;101231.09;;;26.09;52.66
40788;BME280;26497;52.494;7.546;2023-06-22T05:30:36;101231.50;;;25.85;53.47
40788;BME280;26497;52.494;7.546;2023-06-22T05:33:03;101225.53;;;25.80;54.13
40788;BME280;26497;52.494;7.546;2023-06-22T05:35:31;101223.16;;;25.90;54.03
40788;BME280;26497;52.494;7.546;2023-06-22T05:38:00;101230.66;;;26.01;54.03
40788;BME280;26497;52.494;7.546;2023-06-22T05:40:27;101233.84;;;26.25;53.43
40788;BME280;26497;52.494;7.546;2023-06-22T05:42:54;101223.59;;;26.46;52.67
40788;BME280;26497;52.494;7.546;2023-06-22T05:45:26;101234.22;;;26.96;52.53
40788;BME280;26497;52.494;7.546;2023-06-22T05:47:58;101215.91;;;27.59;50.07
40788;BME280;26497;52.494;7.546;2023-06-22T05:50:28;101232.50;;;28.38;47.46
40788;BME280;26497;52.494;7.546;2023-06-22T05:52:55;101222.56;;;29.18;45.82
40788;BME280;26497;52.494;7.546;2023-06-22T05:55:24;101226.50;;;30.03;43.64
40788;BME280;26497;52.494;7.546;2023-06-22T05:57:51;101232.06;;;30.74;41.13
40788;BME280;26497;52.494;7.546;2023-06-22T06:00:20;101232.44;;;31.17;39.84
40788;BME280;26497;52.494;7.546;2023-06-22T06:02:48;101228.88;;;31.73;38.96
40788;BME280;26497;52.494;7.546;2023-06-22T06:05:15;101225.28;;;32.40;37.43
40788;BME280;26497;52.494;7.546;2023-06-22T06:07:44;101220.91;;;32.48;36.61
40788;BME280;26497;52.494;7.546;2023-06-22T06:10:11;101231.22;;;32.45;36.82
40788;BME280;26497;52.494;7.546;2023-06-22T06:12:40;101226.69;;;32.88;36.56
40788;BME280;26497;52.494;7.546;2023-06-22T06:15:09;101229.53;;;33.38;35.09
40788;BME280;26497;52.494;7.546;2023-06-22T06:17:37;101226.66;;;33.09;34.47
40788;BME280;26497;52.494;7.546;2023-06-22T06:20:12;101227.28;;;33.13;35.16
40788;BME280;26497;52.494;7.546;2023-06-22T06:22:39;101226.19;;;33.46;34.00
40788;BME280;26497;52.494;7.546;2023-06-22T06:25:10;101226.81;;;33.60;33.58
40788;BME280;26497;52.494;7.546;2023-06-22T06:27:43;101231.66;;;33.97;33.09
40788;BME280;26497;52.494;7.546;2023-06-22T06:30:12;101235.59;;;34.24;32.38
40788;BME280;26497;52.494;7.546;2023-06-22T06:32:41;101231.59;;;34.18;31.87
40788;BME280;26497;52.494;7.546;2023-06-22T06:35:10;101229.84;;;34.27;32.38
40788;BME280;26497;52.494;7.546;2023-06-22T06:37:40;101232.72;;;34.84;32.11
40788;BME280;26497;52.494;7.546;2023-06-22T06:40:10;101230.84;;;35.52;30.95
40788;BME280;26497;52.494;7.546;2023-06-22T06:42:38;101235.84;;;35.95;30.15
40788;BME280;26497;52.494;7.546;2023-06-22T06:45:10;101227.44;;;36.42;28.28
40788;BME280;26497;52.494;7.546;2023-06-22T06:47:37;101239.06;;;36.54;28.82
40788;BME280;26497;52.494;7.546;2023-06-22T06:50:06;101224.06;;;36.67;28.31
40788;BME280;26497;52.494;7.546;2023-06-22T06:52:34;101219.00;;;36.80;27.96
40788;BME280;26497;52.494;7.546;2023-06-22T06:55:02;101223.22;;;36.93;27.96
40788;BME280;26497;52.494;7.546;2023-06-22T06:57:31;101215.44;;;36.88;27.41
40788;BME280;26497;52.494;7.546;2023-06-22T06:59:59;101208.03;;;37.07;27.00
40788;BME280;26497;52.494;7.546;2023-06-22T07:02:28;101211.78;;;37.32;26.40
40788;BME280;26497;52.494;7.546;2023-06-22T07:04:56;101208.81;;;37.52;26.70
40788;BME280;26497;52.494;7.546;2023-06-22T07:07:23;101214.91;;;37.80;26.16
40788;BME280;26497;52.494;7.546;2023-06-22T07:09:51;101217.88;;;37.87;25.66
40788;BME280;26497;52.494;7.546;2023-06-22T07:12:23;101222.34;;;37.88;24.97
40788;BME280;26497;52.494;7.546;2023-06-22T07:14:51;101213.47;;;37.25;26.10
40788;BME280;26497;52.494;7.546;2023-06-22T07:17:18;101215.44;;;37.06;27.06
40788;BME280;26497;52.494;7.546;2023-06-22T07:19:47;101220.38;;;37.55;26.91
40788;BME280;26497;52.494;7.546;2023-06-22T07:22:14;101214.38;;;38.28;25.53
40788;BME280;26497;52.494;7.546;2023-06-22T07:24:42;101216.91;;;39.20;24.57
40788;BME280;26497;52.494;7.546;2023-06-22T07:27:09;101219.94;;;39.50;23.57
40788;BME280;26497;52.494;7.546;2023-06-22T07:29:38;101202.28;;;39.68;23.68
40788;BME280;26497;52.494;7.546;2023-06-22T07:32:08;101212.03;;;39.87;23.43
40788;BME280;26497;52.494;7.546;2023-06-22T07:34:35;101206.41;;;39.72;23.41
40788;BME280;26497;52.494;7.546;2023-06-22T07:37:05;101211.31;;;39.93;23.68
40788;BME280;26497;52.494;7.546;2023-06-22T07:39:32;101211.38;;;40.55;23.49
40788;BME280;26497;52.494;7.546;2023-06-22T07:42:00;101199.78;;;41.28;21.91
40788;BME280;26497;52.494;7.546;2023-06-22T07:44:27;101205.78;;;41.47;21.81
40788;BME280;26497;52.494;7.546;2023-06-22T07:46:54;101201.41;;;41.37;21.81
40788;BME280;26497;52.494;7.546;2023-06-22T07:49:21;101193.19;;;41.59;22.31
40788;BME280;26497;52.494;7.546;2023-06-22T07:51:49;101191.16;;;42.05;21.67
40788;BME280;26497;52.494;7.546;2023-06-22T07:54:17;101188.66;;;42.32;21.21
40788;BME280;26497;52.494;7.546;2023-06-22T07:56:47;101183.69;;;41.83;21.08
40788;BME280;26497;52.494;7.546;2023-06-22T07:59:15;101192.44;;;41.35;21.71
40788;BME280;26497;52.494;7.546;2023-06-22T08:01:42;101194.06;;;41.15;22.52
40788;BME280;26497;52.494;7.546;2023-06-22T08:04:10;101191.09;;;41.31;22.75
40788;BME280;26497;52.494;7.546;2023-06-22T08:06:37;101183.09;;;41.21;22.17
40788;BME280;26497;52.494;7.546;2023-06-22T08:09:04;101186.47;;;40.78;22.57
40788;BME280;26497;52.494;7.546;2023-06-22T08:11:33;101184.78;;;40.39;22.57
40788;BME280;26497;52.494;7.546;2023-06-22T08:14:00;101192.19;;;40.15;23.49
40788;BME280;26497;52.494;7.546;2023-06-22T08:16:27;101187.28;;;40.25;23.14
40788;BME280;26497;52.494;7.546;2023-06-22T08:18:55;101181.81;;;40.40;23.12
40788;BME280;26497;52.494;7.546;2023-06-22T08:21:22;101193.47;;;40.51;23.26
40788;BME280;26497;52.494;7.546;2023-06-22T08:23:49;101188.69;;;40.45;23.49
40788;BME280;26497;52.494;7.546;2023-06-22T08:26:17;101186.19;;;39.80;23.82
40788;BME280;26497;52.494;7.546;2023-06-22T08:28:45;101196.78;;;39.12;24.92
40788;BME280;26497;52.494;7.546;2023-06-22T08:31:13;101188.25;;;38.40;25.56
40788;BME280;26497;52.494;7.546;2023-06-22T08:33:40;101177.63;;;37.86;26.16
40788;BME280;26497;52.494;7.546;2023-06-22T08:36:09;101177.41;;;37.28;27.18
40788;BME280;26497;52.494;7.546;2023-06-22T08:38:37;101175.06;;;36.80;28.46
40788;BME280;26497;52.494;7.546;2023-06-22T08:41:04;101173.91;;;36.46;28.61
40788;BME280;26497;52.494;7.546;2023-06-22T08:43:31;101171.69;;;36.24;28.96
40788;BME280;26497;52.494;7.546;2023-06-22T08:46:00;101170.41;;;36.36;28.70
40788;BME280;26497;52.494;7.546;2023-06-22T08:48:29;101158.47;;;36.64;28.77
40788;BME280;26497;52.494;7.546;2023-06-22T08:50:56;101164.28;;;36.87;28.45
40788;BME280;26497;52.494;7.546;2023-06-22T08:53:23;101162.16;;;36.81;28.14
40788;BME280;26497;52.494;7.546;2023-06-22T08:55:51;101164.81;;;36.64;28.82
40788;BME280;26497;52.494;7.546;2023-06-22T08:58:18;101170.28;;;36.64;28.17
40788;BME280;26497;52.494;7.546;2023-06-22T09:00:47;101161.34;;;36.62;28.72
40788;BME280;26497;52.494;7.546;2023-06-22T09:03:15;101155.34;;;36.58;28.63
40788;BME280;26497;52.494;7.546;2023-06-22T09:05:43;101146.84;;;36.52;28.30
40788;BME280;26497;52.494;7.546;2023-06-22T09:08:11;101139.56;;;36.42;28.58
40788;BME280;26497;52.494;7.546;2023-06-22T09:10:38;101133.00;;;36.17;29.35
40788;BME280;26497;52.494;7.546;2023-06-22T09:13:06;101137.25;;;36.11;28.91
40788;BME280;26497;52.494;7.546;2023-06-22T09:15:33;101136.28;;;35.84;29.31
40788;BME280;26497;52.494;7.546;2023-06-22T09:18:01;101121.28;;;35.61;29.31
40788;BME280;26497;52.494;7.546;2023-06-22T09:20:30;101132.91;;;35.17;30.24
40788;BME280;26497;52.494;7.546;2023-06-22T09:22:57;101121.53;;;35.11;31.17
40788;BME280;26497;52.494;7.546;2023-06-22T09:25:24;101111.22;;;35.23;30.77
40788;BME280;26497;52.494;7.546;2023-06-22T09:27:52;101105.91;;;35.50;30.12
40788;BME280;26497;52.494;7.546;2023-06-22T09:30:19;101106.09;;;35.66;29.76
40788;BME280;26497;52.494;7.546;2023-06-22T09:32:47;101105.97;;;36.04;30.58
40788;BME280;26497;52.494;7.546;2023-06-22T09:35:14;101102.69;;;36.71;28.84
40788;BME280;26497;52.494;7.546;2023-06-22T09:37:43;101105.91;;;37.71;27.65
40788;BME280;26497;52.494;7.546;2023-06-22T09:40:11;101099.69;;;38.93;26.86
40788;BME280;26497;52.494;7.546;2023-06-22T09:42:41;101110.28;;;40.31;24.19
40788;BME280;26497;52.494;7.546;2023-06-22T09:45:10;101104.00;;;40.52;23.97
40788;BME280;26497;52.494;7.546;2023-06-22T09:47:37;101100.00;;;40.54;24.18
40788;BME280;26497;52.494;7.546;2023-06-22T09:50:05;101109.09;;;40.93;24.27
40788;BME280;26497;52.494;7.546;2023-06-22T09:52:33;101102.50;;;40.79;24.67
40788;BME280;26497;52.494;7.546;2023-06-22T09:55:01;101105.50;;;40.39;24.52
40788;BME280;26497;52.494;7.546;2023-06-22T09:57:29;101104.63;;;40.01;25.18
40788;BME280;26497;52.494;7.546;2023-06-22T09:59:57;101104.91;;;39.83;24.83
40788;BME280;26497;52.494;7.546;2023-06-22T10:02:24;101114.81;;;39.69;25.13
40788;BME280;26497;52.494;7.546;2023-06-22T10:04:51;101121.38;;;39.67;24.81
40788;BME280;26497;52.494;7.546;2023-06-22T10:07:19;101122.94;;;39.30;25.66
40788;BME280;26497;52.494;7.546;2023-06-22T10:09:46;101116.06;;;39.26;26.22
40788;BME280;26497;52.494;7.546;2023-06-22T10:12:15;101115.66;;;39.46;25.90
40788;BME280;26497;52.494;7.546;2023-06-22T10:14:42;101113.97;;;39.36;25.74
40788;BME280;26497;52.494;7.546;2023-06-22T10:17:09;101106.69;;;39.04;26.08
40788;BME280;26497;52.494;7.546;2023-06-22T10:19:36;101100.19;;;38.80;26.62
40788;BME280;26497;52.494;7.546;2023-06-22T10:22:25;101093.38;;;38.51;26.80
40788;BME280;26497;52.494;7.546;2023-06-22T10:24:56;101084.63;;;38.14;26.69
40788;BME280;26497;52.494;7.546;2023-06-22T10:27:24;101085.13;;;37.85;28.46
40788;BME280;26497;52.494;7.546;2023-06-22T10:29:52;101077.69;;;37.77;28.42
40788;BME280;26497;52.494;7.546;2023-06-22T10:32:19;101088.38;;;37.64;28.50
40788;BME280;26497;52.494;7.546;2023-06-22T10:34:49;101081.47;;;37.59;28.59
40788;BME280;26497;52.494;7.546;2023-06-22T10:37:16;101077.00;;;37.58;28.87
40788;BME280;26497;52.494;7.546;2023-06-22T10:39:43;101080.00;;;37.30;28.50
40788;BME280;26497;52.494;7.546;2023-06-22T10:42:11;101070.63;;;37.07;28.73
40788;BME280;26497;52.494;7.546;2023-06-22T10:44:40;101064.47;;;36.78;28.71
40788;BME280;26497;52.494;7.546;2023-06-22T10:47:09;101079.53;;;36.48;29.93
40788;BME280;26497;52.494;7.546;2023-06-22T10:49:38;101081.53;;;36.37;30.63
40788;BME280;26497;52.494;7.546;2023-06-22T10:52:07;101076.31;;;36.26;30.11
40788;BME280;26497;52.494;7.546;2023-06-22T10:54:36;101079.00;;;35.99;30.65
40788;BME280;26497;52.494;7.546;2023-06-22T10:57:04;101081.72;;;35.81;31.16
40788;BME280;26497;52.494;7.546;2023-06-22T10:59:31;101075.00;;;35.76;31.75
40788;BME280;26497;52.494;7.546;2023-06-22T11:02:00;101080.22;;;35.87;31.72
40788;BME280;26497;52.494;7.546;2023-06-22T11:04:28;101084.63;;;35.62;30.77
40788;BME280;26497;52.494;7.546;2023-06-22T11:06:55;101085.50;;;35.34;30.79
40788;BME280;26497;52.494;7.546;2023-06-22T11:09:23;101087.16;;;35.17;31.65
40788;BME280;26497;52.494;7.546;2023-06-22T11:11:51;101095.19;;;35.01;32.95
40788;BME280;26497;52.494;7.546;2023-06-22T11:14:20;101086.63;;;34.66;33.23
40788;BME280;26497;52.494;7.546;2023-06-22T11:16:47;101082.63;;;34.40;32.99
40788;BME280;26497;52.494;7.546;2023-06-22T11:19:16;101072.47;;;34.13;33.60
40788;BME280;26497;52.494;7.546;2023-06-22T11:21:43;101076.03;;;33.94;34.09
40788;BME280;26497;52.494;7.546;2023-06-22T11:24:14;101067.53;;;33.87;34.33
40788;BME280;26497;52.494;7.546;2023-06-22T11:26:41;101074.16;;;33.65;34.01
40788;BME280;26497;52.494;7.546;2023-06-22T11:29:09;101061.03;;;33.49;35.16
40788;BME280;26497;52.494;7.546;2023-06-22T11:31:36;101057.88;;;33.53;35.56
40788;BME280;26497;52.494;7.546;2023-06-22T11:34:04;101062.50;;;33.73;35.12
40788;BME280;26497;52.494;7.546;2023-06-22T11:36:32;101061.91;;;33.79;35.19
40788;BME280;26497;52.494;7.546;2023-06-22T11:39:01;101052.00;;;33.68;35.33
40788;BME280;26497;52.494;7.546;2023-06-22T11:41:28;101044.94;;;33.65;35.46
40788;BME280;26497;52.494;7.546;2023-06-22T11:43:55;101045.06;;;33.54;35.93
40788;BME280;26497;52.494;7.546;2023-06-22T11:46:22;101034.97;;;33.45;35.80
40788;BME280;26497;52.494;7.546;2023-06-22T11:48:50;101023.84;;;33.36;35.22
40788;BME280;26497;52.494;7.546;2023-06-22T11:51:17;101023.25;;;33.13;36.48
40788;BME280;26497;52.494;7.546;2023-06-22T11:53:48;101013.16;;;33.04;36.82
40788;BME280;26497;52.494;7.546;2023-06-22T11:56:16;101015.88;;;32.94;35.97
40788;BME280;26497;52.494;7.546;2023-06-22T11:58:43;100999.03;;;32.89;36.30
40788;BME280;26497;52.494;7.546;2023-06-22T12:01:10;100997.50;;;32.75;36.89
40788;BME280;26497;52.494;7.546;2023-06-22T12:03:40;101002.25;;;32.73;36.64
40788;BME280;26497;52.494;7.546;2023-06-22T12:06:09;101001.22;;;32.64;36.68
40788;BME280;26497;52.494;7.546;2023-06-22T12:08:36;100986.31;;;32.47;37.50
40788;BME280;26497;52.494;7.546;2023-06-22T12:11:05;100988.06;;;32.27;37.96
40788;BME280;26497;52.494;7.546;2023-06-22T12:13:32;100983.38;;;32.08;38.56
40788;BME280;26497;52.494;7.546;2023-06-22T12:16:00;100980.97;;;31.93;38.56
40788;BME280;26497;52.494;7.546;2023-06-22T12:18:27;100979.84;;;31.74;39.11
40788;BME280;26497;52.494;7.546;2023-06-22T12:20:54;100989.03;;;31.62;39.47
40788;BME280;26497;52.494;7.546;2023-06-22T12:23:21;100986.03;;;31.65;39.81
40788;BME280;26497;52.494;7.546;2023-06-22T12:25:48;100992.41;;;31.87;39.64
40788;BME280;26497;52.494;7.546;2023-06-22T12:28:17;100987.16;;;31.95;38.91
40788;BME280;26497;52.494;7.546;2023-06-22T12:30:44;100994.66;;;32.03;38.99
40788;BME280;26497;52.494;7.546;2023-06-22T12:33:14;100986.28;;;32.16;39.32
40788;BME280;26497;52.494;7.546;2023-06-22T12:35:43;100999.28;;;32.45;38.54
40788;BME280;26497;52.494;7.546;2023-06-22T12:38:11;100985.22;;;32.59;38.42
40788;BME280;26497;52.494;7.546;2023-06-22T12:40:38;100986.31;;;32.78;38.40
40788;BME280;26497;52.494;7.546;2023-06-22T12:43:05;100985.09;;;32.92;37.24
40788;BME280;26497;52.494;7.546;2023-06-22T12:45:35;100988.84;;;32.91;37.29
40788;BME280;26497;52.494;7.546;2023-06-22T12:48:05;100975.59;;;32.86;37.36
40788;BME280;26497;52.494;7.546;2023-06-22T12:50:34;100974.09;;;32.72;37.54
40788;BME280;26497;52.494;7.546;2023-06-22T12:53:01;100983.69;;;32.67;37.75
40788;BME280;26497;52.494;7.546;2023-06-22T12:55:30;100975.47;;;32.57;38.24
40788;BME280;26497;52.494;7.546;2023-06-22T12:57:57;100979.75;;;32.49;38.76
40788;BME280;26497;52.494;7.546;2023-06-22T13:00:24;100974.31;;;32.28;38.06
40788;BME280;26497;52.494;7.546;2023-06-22T13:02:54;100975.00;;;31.99;38.29
40788;BME280;26497;52.494;7.546;2023-06-22T13:05:21;100977.72;;;31.78;38.42
40788;BME280;26497;52.494;7.546;2023-06-22T13:07:49;100982.09;;;31.58;39.29
40788;BME280;26497;52.494;7.546;2023-06-22T13:10:16;100977.72;;;31.34;39.70
40788;BME280;26497;52.494;7.546;2023-06-22T13:12:43;100981.75;;;31.07;40.12
40788;BME280;26497;52.494;7.546;2023-06-22T13:15:11;100975.34;;;30.85;40.85
40788;BME280;26497;52.494;7.546;2023-06-22T13:17:40;100978.19;;;30.72;41.43
40788;BME280;26497;52.494;7.546;2023-06-22T13:20:10;100972.75;;;30.61;41.86
40788;BME280;26497;52.494;7.546;2023-06-22T13:22:38;100979.44;;;30.45;42.20
40788;BME280;26497;52.494;7.546;2023-06-22T13:25:09;100976.44;;;30.37;42.37